Aérodrome :
LOGIN :

S'inscrire | Disclaimer

   EN    FR    IT 

 










Légende :    VFR   VFR Marginal   IFR   IFR Intensif   IFR Très Intensif
Visi : 
Plafond : 
>= 8 km
>= 3000ft
5 à 8 km
1000 à 3000 ft
1500m à 5 km
500 à 1000 ft
800 à 1500m
200 à 500 ft
< 800m
< 200 ft
Symboles :   Orages  Brouillard  Fortes neiges  Fortes précipitations  Vent > 20 kt
SIGMETs :   Divers  Orages  Givrage  Turbulence  Onde Orograph.  Cendres Volcan.







- Altitude de l'aérodrome : 645 ft
- Code IATA : DLE
- Voir les cartes d'approche


LFGJ - Dole Tavaux

DERNIER METAR :
  • 171900Z AUTO 07003KT 9999 BKN010 OVC015 04/04 Q1023 NOSIG

METARs EXPIRÉS :
  • 171830Z AUTO 05003KT 9999 BKN012 BKN019 OVC025 04/04 Q1023 TEMPO BKN007
  • 171800Z AUTO VRB02KT 9999 -RA BKN011 OVC022 05/04 Q1022 TEMPO BKN007
  • 171730Z AUTO VRB02KT 9999 -RADZ OVC011 05/04 Q1022 TEMPO BKN007
  • 171700Z AUTO 10002KT 9999 OVC015 05/04 Q1021 TEMPO 4000 -RA BKN007
  • 171630Z AUTO VRB03KT 9999 -RA BKN017 BKN023 OVC029 05/04 Q1021 TEMPO 4000 -RA BKN007

TAF AMD TAF LFGJ
Valide du 17 à 18h jusqu'au 18 à 00h UTC


171806Z 1718/1724 35005KT 9999 BKN010 OVC017
PROB40
TEMPO 1718/1720 -RADZ
PROB40
TEMPO 1718/1724 BKN007
PROB30
TEMPO 1721/1724 5000 BR
Pas de NOTAMs connus pour ce terrain.



MET'MAP, la Météo Aéronautique d'un coup d'oeil ! - Copyright ORBIFLY Décembre 2007 - Disclaimer

ORBIFLY MET'MAP TEAM :

Programmation & Développement : Alexandra Zaïnal
Conception & Développement : Baudouin d'Aumeries
Co-Programmation & Développement : Marc-Olivier Méhu
Soutien technique & logistique : Manuel Goepfert

Contact : metmap@orbifly.com




SOURCES & CREDITS :

   NOAA